Aérodrome :
LOGIN :

S'inscrire | Disclaimer

   EN    FR    IT 

 










Légende :    VFR   VFR Marginal   IFR   IFR Intensif   IFR Très Intensif
Visi : 
Plafond : 
>= 8 km
>= 3000ft
5 à 8 km
1000 à 3000 ft
1500m à 5 km
500 à 1000 ft
800 à 1500m
200 à 500 ft
< 800m
< 200 ft
Symboles :   Orages  Brouillard  Fortes neiges  Fortes précipitations  Vent > 20 kt
SIGMETs :   Divers  Orages  Givrage  Turbulence  Onde Orograph.  Cendres Volcan.







- Altitude de l'aérodrome : 56 ft
- Code IATA : ILY
- Voir les cartes d'approche


EGPI - Islay

DERNIER METAR :
  • 121750Z 29020G30KT 9999 -RA SCT009 SCT035 08/07 Q0993

METARs EXPIRÉS :
  • 121720Z 20016KT 160V230 6000 RA SCT009 BKN020 05/05 Q0993
  • 121650Z 18016KT 140V210 6000 RA SCT009 BKN025 04/04 Q0994
  • 121620Z 17018KT 140V200 4300 RA SCT009 BKN020 04/04 Q0995
  • 121550Z 17017KT 140V200 5000 RA SCT009 BKN039 04/03 Q0996
  • 121520Z 17018KT 6000 RA SCT009 BKN023 04/03 Q0996
  • 121450Z 18016G26KT 150V210 9000 RA FEW015 BKN028 04/03 Q0997

TAF AMD TAF EGPI
Valide du 12 à 17h jusqu'au 12 à 19h UTC


121730Z 1217/1219 19012KT 9999 FEW015
BECMG 1217/1219 28020KT
TEMPO 1216/1219 29023G35KT 6000 -RA BKN010
PROB40
TEMPO 1217/1219 3000 RADZ BKN006
Pas de NOTAMs connus pour ce terrain.



MET'MAP, la Météo Aéronautique d'un coup d'oeil ! - Copyright ORBIFLY Décembre 2007 - Disclaimer

ORBIFLY MET'MAP TEAM :

Programmation & Développement : Alexandra Zaïnal
Conception & Développement : Baudouin d'Aumeries
Co-Programmation & Développement : Marc-Olivier Méhu
Soutien technique & logistique : Manuel Goepfert

Contact : metmap@orbifly.com




SOURCES & CREDITS :

   NOAA